sensor_id;sensor_type;location;lat;lon;timestamp;P1;durP1;ratioP1;P2;durP2;ratioP2
10463;SDS011;5279;42.048;24.638;2023-07-20T00:00:01;4.40;;;4.00;;
10463;SDS011;5279;42.048;24.638;2023-07-20T00:02:28;4.63;;;4.10;;
10463;SDS011;5279;42.048;24.638;2023-07-20T00:04:57;5.07;;;4.23;;
10463;SDS011;5279;42.048;24.638;2023-07-20T00:07:23;5.63;;;4.30;;
10463;SDS011;5279;42.048;24.638;2023-07-20T00:09:50;6.03;;;4.00;;
10463;SDS011;5279;42.048;24.638;2023-07-20T00:12:17;6.27;;;4.00;;
10463;SDS011;5279;42.048;24.638;2023-07-20T00:14:44;5.27;;;3.90;;
10463;SDS011;5279;42.048;24.638;2023-07-20T00:17:11;5.53;;;3.77;;
10463;SDS011;5279;42.048;24.638;2023-07-20T00:19:47;7.40;;;3.63;;
10463;SDS011;5279;42.048;24.638;2023-07-20T00:22:15;5.83;;;4.53;;
10463;SDS011;5279;42.048;24.638;2023-07-20T00:24:42;7.27;;;3.63;;
10463;SDS011;5279;42.048;24.638;2023-07-20T00:27:09;5.33;;;3.70;;
10463;SDS011;5279;42.048;24.638;2023-07-20T00:29:35;6.37;;;3.60;;
10463;SDS011;5279;42.048;24.638;2023-07-20T00:32:02;6.90;;;3.20;;
10463;SDS011;5279;42.048;24.638;2023-07-20T00:34:31;4.47;;;3.43;;
10463;SDS011;5279;42.048;24.638;2023-07-20T00:36:58;3.73;;;3.33;;
10463;SDS011;5279;42.048;24.638;2023-07-20T00:39:26;7.77;;;3.53;;
10463;SDS011;5279;42.048;24.638;2023-07-20T00:41:53;4.90;;;3.33;;
10463;SDS011;5279;42.048;24.638;2023-07-20T00:44:19;4.37;;;3.10;;
10463;SDS011;5279;42.048;24.638;2023-07-20T00:46:46;5.50;;;3.50;;
10463;SDS011;5279;42.048;24.638;2023-07-20T00:49:13;5.73;;;3.27;;
10463;SDS011;5279;42.048;24.638;2023-07-20T00:51:40;7.50;;;3.07;;
10463;SDS011;5279;42.048;24.638;2023-07-20T00:54:07;4.60;;;3.07;;
10463;SDS011;5279;42.048;24.638;2023-07-20T00:56:36;5.97;;;3.30;;
10463;SDS011;5279;42.048;24.638;2023-07-20T00:59:02;5.80;;;3.20;;
10463;SDS011;5279;42.048;24.638;2023-07-20T01:01:29;3.63;;;3.13;;
10463;SDS011;5279;42.048;24.638;2023-07-20T01:03:56;4.00;;;3.27;;
10463;SDS011;5279;42.048;24.638;2023-07-20T01:06:25;6.13;;;3.40;;
10463;SDS011;5279;42.048;24.638;2023-07-20T01:09:05;6.60;;;3.90;;
10463;SDS011;5279;42.048;24.638;2023-07-20T01:11:41;7.30;;;3.83;;
10463;SDS011;5279;42.048;24.638;2023-07-20T01:14:12;6.97;;;3.57;;
10463;SDS011;5279;42.048;24.638;2023-07-20T01:16:40;6.00;;;3.50;;
10463;SDS011;5279;42.048;24.638;2023-07-20T01:19:07;6.20;;;3.47;;
10463;SDS011;5279;42.048;24.638;2023-07-20T01:21:35;4.67;;;3.63;;
10463;SDS011;5279;42.048;24.638;2023-07-20T01:27:32;6.97;;;3.83;;
10463;SDS011;5279;42.048;24.638;2023-07-20T01:30:46;4.43;;;3.13;;
10463;SDS011;5279;42.048;24.638;2023-07-20T01:33:22;4.90;;;3.63;;
10463;SDS011;5279;42.048;24.638;2023-07-20T01:35:52;7.87;;;3.93;;
10463;SDS011;5279;42.048;24.638;2023-07-20T01:38:21;4.10;;;3.20;;
10463;SDS011;5279;42.048;24.638;2023-07-20T01:40:49;6.53;;;3.50;;
10463;SDS011;5279;42.048;24.638;2023-07-20T01:43:17;9.73;;;3.93;;
10463;SDS011;5279;42.048;24.638;2023-07-20T01:45:44;4.00;;;3.43;;
10463;SDS011;5279;42.048;24.638;2023-07-20T01:48:11;6.30;;;4.07;;
10463;SDS011;5279;42.048;24.638;2023-07-20T01:50:40;4.97;;;3.63;;
10463;SDS011;5279;42.048;24.638;2023-07-20T01:53:06;4.30;;;3.60;;
10463;SDS011;5279;42.048;24.638;2023-07-20T01:55:33;4.63;;;3.40;;
10463;SDS011;5279;42.048;24.638;2023-07-20T01:58:00;7.23;;;3.80;;
10463;SDS011;5279;42.048;24.638;2023-07-20T02:00:28;7.07;;;4.20;;
10463;SDS011;5279;42.048;24.638;2023-07-20T02:02:55;4.23;;;3.80;;
10463;SDS011;5279;42.048;24.638;2023-07-20T02:05:22;4.37;;;3.80;;
10463;SDS011;5279;42.048;24.638;2023-07-20T02:07:51;4.00;;;3.20;;
10463;SDS011;5279;42.048;24.638;2023-07-20T02:10:17;6.03;;;4.23;;
10463;SDS011;5279;42.048;24.638;2023-07-20T02:12:44;4.37;;;3.97;;
10463;SDS011;5279;42.048;24.638;2023-07-20T02:15:11;7.77;;;4.20;;
10463;SDS011;5279;42.048;24.638;2023-07-20T02:17:39;5.90;;;4.17;;
10463;SDS011;5279;42.048;24.638;2023-07-20T02:20:07;4.47;;;3.93;;
10463;SDS011;5279;42.048;24.638;2023-07-20T02:22:35;5.73;;;3.77;;
10463;SDS011;5279;42.048;24.638;2023-07-20T02:25:04;4.57;;;4.10;;
10463;SDS011;5279;42.048;24.638;2023-07-20T02:27:32;4.23;;;3.77;;
10463;SDS011;5279;42.048;24.638;2023-07-20T02:29:59;8.57;;;3.80;;
10463;SDS011;5279;42.048;24.638;2023-07-20T02:32:26;5.80;;;3.77;;
10463;SDS011;5279;42.048;24.638;2023-07-20T02:34:53;4.03;;;3.53;;
10463;SDS011;5279;42.048;24.638;2023-07-20T02:37:20;4.93;;;4.23;;
10463;SDS011;5279;42.048;24.638;2023-07-20T02:39:47;5.63;;;4.00;;
10463;SDS011;5279;42.048;24.638;2023-07-20T02:42:15;5.73;;;4.20;;
10463;SDS011;5279;42.048;24.638;2023-07-20T02:44:42;4.63;;;3.97;;
10463;SDS011;5279;42.048;24.638;2023-07-20T02:47:09;6.47;;;4.23;;
10463;SDS011;5279;42.048;24.638;2023-07-20T02:49:36;4.53;;;3.70;;
10463;SDS011;5279;42.048;24.638;2023-07-20T02:52:03;5.57;;;3.90;;
10463;SDS011;5279;42.048;24.638;2023-07-20T02:54:30;4.63;;;3.60;;
10463;SDS011;5279;42.048;24.638;2023-07-20T02:56:57;4.30;;;3.90;;
10463;SDS011;5279;42.048;24.638;2023-07-20T02:59:26;5.87;;;4.13;;
10463;SDS011;5279;42.048;24.638;2023-07-20T03:01:52;5.20;;;4.33;;
10463;SDS011;5279;42.048;24.638;2023-07-20T03:04:20;7.87;;;3.93;;
10463;SDS011;5279;42.048;24.638;2023-07-20T03:06:47;4.20;;;3.50;;
10463;SDS011;5279;42.048;24.638;2023-07-20T03:09:14;8.93;;;4.03;;
10463;SDS011;5279;42.048;24.638;2023-07-20T03:11:41;4.50;;;4.10;;
10463;SDS011;5279;42.048;24.638;2023-07-20T03:14:08;6.80;;;4.10;;
10463;SDS011;5279;42.048;24.638;2023-07-20T03:16:37;5.33;;;3.80;;
10463;SDS011;5279;42.048;24.638;2023-07-20T03:19:04;4.60;;;4.20;;
10463;SDS011;5279;42.048;24.638;2023-07-20T03:21:31;4.50;;;4.10;;
10463;SDS011;5279;42.048;24.638;2023-07-20T03:23:57;4.50;;;4.10;;
10463;SDS011;5279;42.048;24.638;2023-07-20T03:26:24;5.83;;;4.07;;
10463;SDS011;5279;42.048;24.638;2023-07-20T03:28:51;4.33;;;3.90;;
10463;SDS011;5279;42.048;24.638;2023-07-20T03:31:18;9.47;;;4.20;;
10463;SDS011;5279;42.048;24.638;2023-07-20T03:33:46;4.80;;;4.30;;
10463;SDS011;5279;42.048;24.638;2023-07-20T03:36:13;4.40;;;3.97;;
10463;SDS011;5279;42.048;24.638;2023-07-20T03:38:40;5.07;;;3.90;;
10463;SDS011;5279;42.048;24.638;2023-07-20T03:41:07;4.60;;;4.10;;
10463;SDS011;5279;42.048;24.638;2023-07-20T03:43:34;5.73;;;3.87;;
10463;SDS011;5279;42.048;24.638;2023-07-20T03:46:01;6.33;;;4.67;;
10463;SDS011;5279;42.048;24.638;2023-07-20T03:48:31;5.63;;;4.20;;
10463;SDS011;5279;42.048;24.638;2023-07-20T03:51:00;5.53;;;3.90;;
10463;SDS011;5279;42.048;24.638;2023-07-20T03:53:27;5.07;;;4.17;;
10463;SDS011;5279;42.048;24.638;2023-07-20T03:55:54;6.83;;;3.73;;
10463;SDS011;5279;42.048;24.638;2023-07-20T03:58:21;4.70;;;4.20;;
10463;SDS011;5279;42.048;24.638;2023-07-20T04:00:48;4.73;;;3.73;;
10463;SDS011;5279;42.048;24.638;2023-07-20T04:03:16;5.37;;;4.30;;
10463;SDS011;5279;42.048;24.638;2023-07-20T04:05:43;4.50;;;4.10;;
10463;SDS011;5279;42.048;24.638;2023-07-20T04:08:12;5.30;;;4.10;;
10463;SDS011;5279;42.048;24.638;2023-07-20T04:10:39;5.70;;;3.60;;
10463;SDS011;5279;42.048;24.638;2023-07-20T04:13:09;7.93;;;4.10;;
10463;SDS011;5279;42.048;24.638;2023-07-20T04:15:36;4.60;;;4.20;;
10463;SDS011;5279;42.048;24.638;2023-07-20T04:18:03;4.50;;;4.10;;
10463;SDS011;5279;42.048;24.638;2023-07-20T04:20:30;4.27;;;3.73;;
10463;SDS011;5279;42.048;24.638;2023-07-20T04:22:57;4.67;;;3.83;;
10463;SDS011;5279;42.048;24.638;2023-07-20T04:25:25;6.33;;;4.40;;
10463;SDS011;5279;42.048;24.638;2023-07-20T04:27:52;7.47;;;3.90;;
10463;SDS011;5279;42.048;24.638;2023-07-20T04:30:18;5.70;;;4.00;;
10463;SDS011;5279;42.048;24.638;2023-07-20T04:32:47;5.87;;;3.90;;
10463;SDS011;5279;42.048;24.638;2023-07-20T04:35:17;5.80;;;4.07;;
10463;SDS011;5279;42.048;24.638;2023-07-20T04:37:45;9.77;;;4.00;;
10463;SDS011;5279;42.048;24.638;2023-07-20T04:40:12;8.03;;;4.10;;
10463;SDS011;5279;42.048;24.638;2023-07-20T04:42:41;6.43;;;4.03;;
10463;SDS011;5279;42.048;24.638;2023-07-20T04:45:08;5.73;;;4.30;;
10463;SDS011;5279;42.048;24.638;2023-07-20T04:47:35;5.17;;;3.87;;
10463;SDS011;5279;42.048;24.638;2023-07-20T04:50:02;4.67;;;4.10;;
10463;SDS011;5279;42.048;24.638;2023-07-20T04:52:29;6.07;;;4.43;;
10463;SDS011;5279;42.048;24.638;2023-07-20T04:54:56;4.90;;;4.00;;
10463;SDS011;5279;42.048;24.638;2023-07-20T04:57:23;4.10;;;3.70;;
10463;SDS011;5279;42.048;24.638;2023-07-20T04:59:52;6.97;;;4.27;;
10463;SDS011;5279;42.048;24.638;2023-07-20T05:02:18;4.50;;;4.10;;
10463;SDS011;5279;42.048;24.638;2023-07-20T05:04:45;4.47;;;4.07;;
10463;SDS011;5279;42.048;24.638;2023-07-20T05:07:12;4.47;;;4.07;;
10463;SDS011;5279;42.048;24.638;2023-07-20T05:09:39;4.82;;;4.20;;
10463;SDS011;5279;42.048;24.638;2023-07-20T05:12:06;4.63;;;4.10;;
10463;SDS011;5279;42.048;24.638;2023-07-20T05:14:33;3.65;;;3.33;;
10463;SDS011;5279;42.048;24.638;2023-07-20T05:17:01;4.72;;;4.05;;
10463;SDS011;5279;42.048;24.638;2023-07-20T05:19:28;4.28;;;3.97;;
10463;SDS011;5279;42.048;24.638;2023-07-20T05:21:55;5.22;;;4.20;;
10463;SDS011;5279;42.048;24.638;2023-07-20T05:24:22;9.88;;;4.43;;
10463;SDS011;5279;42.048;24.638;2023-07-20T05:26:49;6.03;;;4.20;;
10463;SDS011;5279;42.048;24.638;2023-07-20T05:29:16;7.20;;;3.90;;
10463;SDS011;5279;42.048;24.638;2023-07-20T05:31:43;9.88;;;3.97;;
10463;SDS011;5279;42.048;24.638;2023-07-20T05:34:11;4.07;;;3.65;;
10463;SDS011;5279;42.048;24.638;2023-07-20T05:36:38;7.07;;;4.18;;
10463;SDS011;5279;42.048;24.638;2023-07-20T05:39:05;7.20;;;4.43;;
10463;SDS011;5279;42.048;24.638;2023-07-20T05:41:31;4.85;;;4.45;;
10463;SDS011;5279;42.048;24.638;2023-07-20T05:43:58;6.57;;;4.20;;
10463;SDS011;5279;42.048;24.638;2023-07-20T05:46:25;6.63;;;3.75;;
10463;SDS011;5279;42.048;24.638;2023-07-20T05:48:52;9.15;;;4.43;;
10463;SDS011;5279;42.048;24.638;2023-07-20T05:51:20;7.22;;;4.35;;
10463;SDS011;5279;42.048;24.638;2023-07-20T05:53:47;6.38;;;4.57;;
10463;SDS011;5279;42.048;24.638;2023-07-20T05:56:14;8.50;;;4.38;;
10463;SDS011;5279;42.048;24.638;2023-07-20T05:58:41;5.63;;;4.30;;
10463;SDS011;5279;42.048;24.638;2023-07-20T06:01:08;8.68;;;4.28;;
10463;SDS011;5279;42.048;24.638;2023-07-20T06:03:35;6.75;;;4.45;;
10463;SDS011;5279;42.048;24.638;2023-07-20T06:06:02;11.15;;;4.97;;
10463;SDS011;5279;42.048;24.638;2023-07-20T06:08:32;7.47;;;3.75;;
10463;SDS011;5279;42.048;24.638;2023-07-20T06:10:59;8.30;;;4.38;;
10463;SDS011;5279;42.048;24.638;2023-07-20T06:13:26;6.97;;;4.30;;
10463;SDS011;5279;42.048;24.638;2023-07-20T06:15:53;6.15;;;3.92;;
10463;SDS011;5279;42.048;24.638;2023-07-20T06:18:21;13.73;;;4.38;;
10463;SDS011;5279;42.048;24.638;2023-07-20T06:20:48;5.50;;;3.70;;
10463;SDS011;5279;42.048;24.638;2023-07-20T06:23:16;11.32;;;4.82;;
10463;SDS011;5279;42.048;24.638;2023-07-20T06:25:45;7.55;;;4.28;;
10463;SDS011;5279;42.048;24.638;2023-07-20T06:28:12;8.15;;;3.90;;
10463;SDS011;5279;42.048;24.638;2023-07-20T06:30:39;7.40;;;4.25;;
10463;SDS011;5279;42.048;24.638;2023-07-20T06:33:06;17.50;;;4.70;;
10463;SDS011;5279;42.048;24.638;2023-07-20T06:35:33;10.70;;;4.13;;
10463;SDS011;5279;42.048;24.638;2023-07-20T06:38:00;5.38;;;3.92;;
10463;SDS011;5279;42.048;24.638;2023-07-20T06:40:29;7.45;;;4.45;;
10463;SDS011;5279;42.048;24.638;2023-07-20T06:42:57;8.43;;;4.30;;
10463;SDS011;5279;42.048;24.638;2023-07-20T06:45:24;8.63;;;4.18;;
10463;SDS011;5279;42.048;24.638;2023-07-20T06:47:51;6.05;;;3.97;;
10463;SDS011;5279;42.048;24.638;2023-07-20T06:50:17;9.85;;;3.75;;
10463;SDS011;5279;42.048;24.638;2023-07-20T06:52:44;6.43;;;4.30;;
10463;SDS011;5279;42.048;24.638;2023-07-20T06:55:13;5.78;;;4.28;;
10463;SDS011;5279;42.048;24.638;2023-07-20T06:57:40;10.00;;;4.50;;
10463;SDS011;5279;42.048;24.638;2023-07-20T07:00:08;6.55;;;4.63;;
10463;SDS011;5279;42.048;24.638;2023-07-20T07:02:36;7.07;;;4.53;;
10463;SDS011;5279;42.048;24.638;2023-07-20T07:05:03;12.55;;;4.90;;
10463;SDS011;5279;42.048;24.638;2023-07-20T07:07:30;10.95;;;4.72;;
10463;SDS011;5279;42.048;24.638;2023-07-20T07:09:58;7.57;;;3.90;;
10463;SDS011;5279;42.048;24.638;2023-07-20T07:12:25;9.13;;;4.50;;
10463;SDS011;5279;42.048;24.638;2023-07-20T07:14:52;6.10;;;4.07;;
10463;SDS011;5279;42.048;24.638;2023-07-20T07:17:21;4.90;;;4.10;;
10463;SDS011;5279;42.048;24.638;2023-07-20T07:19:47;7.63;;;4.05;;
10463;SDS011;5279;42.048;24.638;2023-07-20T07:22:14;11.13;;;4.25;;
10463;SDS011;5279;42.048;24.638;2023-07-20T07:24:41;6.07;;;4.25;;
10463;SDS011;5279;42.048;24.638;2023-07-20T07:27:08;7.85;;;4.50;;
10463;SDS011;5279;42.048;24.638;2023-07-20T07:29:35;5.80;;;4.57;;
10463;SDS011;5279;42.048;24.638;2023-07-20T07:32:02;6.53;;;3.95;;
10463;SDS011;5279;42.048;24.638;2023-07-20T07:34:31;8.20;;;4.28;;
10463;SDS011;5279;42.048;24.638;2023-07-20T07:36:59;9.27;;;4.68;;
10463;SDS011;5279;42.048;24.638;2023-07-20T07:39:26;6.85;;;4.00;;
10463;SDS011;5279;42.048;24.638;2023-07-20T07:41:55;6.00;;;4.00;;
10463;SDS011;5279;42.048;24.638;2023-07-20T07:44:22;4.32;;;3.92;;
10463;SDS011;5279;42.048;24.638;2023-07-20T07:46:49;8.77;;;4.50;;
10463;SDS011;5279;42.048;24.638;2023-07-20T07:49:15;11.40;;;4.40;;
10463;SDS011;5279;42.048;24.638;2023-07-20T07:51:45;7.07;;;4.38;;
10463;SDS011;5279;42.048;24.638;2023-07-20T07:54:12;4.05;;;3.75;;
10463;SDS011;5279;42.048;24.638;2023-07-20T07:56:39;5.68;;;4.20;;
10463;SDS011;5279;42.048;24.638;2023-07-20T07:59:06;5.78;;;3.80;;
10463;SDS011;5279;42.048;24.638;2023-07-20T08:01:32;4.82;;;3.90;;
10463;SDS011;5279;42.048;24.638;2023-07-20T08:04:00;8.13;;;4.00;;
10463;SDS011;5279;42.048;24.638;2023-07-20T08:06:28;7.05;;;3.80;;
10463;SDS011;5279;42.048;24.638;2023-07-20T08:08:58;5.57;;;3.78;;
10463;SDS011;5279;42.048;24.638;2023-07-20T08:11:24;5.63;;;4.40;;
10463;SDS011;5279;42.048;24.638;2023-07-20T08:13:51;7.18;;;4.10;;
10463;SDS011;5279;42.048;24.638;2023-07-20T08:16:18;4.82;;;3.92;;
10463;SDS011;5279;42.048;24.638;2023-07-20T08:18:45;4.80;;;4.10;;
10463;SDS011;5279;42.048;24.638;2023-07-20T08:21:12;9.57;;;4.57;;
10463;SDS011;5279;42.048;24.638;2023-07-20T08:23:38;4.38;;;3.80;;
10463;SDS011;5279;42.048;24.638;2023-07-20T08:26:07;5.03;;;4.38;;
10463;SDS011;5279;42.048;24.638;2023-07-20T08:28:34;5.57;;;4.35;;
10463;SDS011;5279;42.048;24.638;2023-07-20T08:31:01;5.90;;;4.22;;
10463;SDS011;5279;42.048;24.638;2023-07-20T08:33:28;7.32;;;3.90;;
10463;SDS011;5279;42.048;24.638;2023-07-20T08:35:58;9.05;;;4.22;;
10463;SDS011;5279;42.048;24.638;2023-07-20T08:38:26;8.23;;;3.92;;
10463;SDS011;5279;42.048;24.638;2023-07-20T08:40:53;6.55;;;4.35;;
10463;SDS011;5279;42.048;24.638;2023-07-20T08:43:22;7.50;;;4.32;;
10463;SDS011;5279;42.048;24.638;2023-07-20T08:45:50;5.30;;;4.10;;
10463;SDS011;5279;42.048;24.638;2023-07-20T08:48:20;6.45;;;4.10;;
10463;SDS011;5279;42.048;24.638;2023-07-20T08:50:47;5.13;;;4.25;;
10463;SDS011;5279;42.048;24.638;2023-07-20T08:53:17;6.55;;;4.82;;
10463;SDS011;5279;42.048;24.638;2023-07-20T08:55:44;5.50;;;4.55;;
10463;SDS011;5279;42.048;24.638;2023-07-20T08:58:12;4.28;;;3.70;;
10463;SDS011;5279;42.048;24.638;2023-07-20T09:00:41;5.28;;;4.57;;
10463;SDS011;5279;42.048;24.638;2023-07-20T09:03:09;9.25;;;4.45;;
10463;SDS011;5279;42.048;24.638;2023-07-20T09:05:37;6.43;;;4.65;;
10463;SDS011;5279;42.048;24.638;2023-07-20T09:08:05;5.05;;;4.45;;
10463;SDS011;5279;42.048;24.638;2023-07-20T09:10:32;4.78;;;4.20;;
10463;SDS011;5279;42.048;24.638;2023-07-20T09:12:58;7.45;;;4.80;;
10463;SDS011;5279;42.048;24.638;2023-07-20T09:15:25;5.85;;;4.80;;
10463;SDS011;5279;42.048;24.638;2023-07-20T09:17:53;6.45;;;4.15;;
10463;SDS011;5279;42.048;24.638;2023-07-20T09:20:20;5.65;;;4.63;;
10463;SDS011;5279;42.048;24.638;2023-07-20T09:22:48;6.82;;;4.80;;
10463;SDS011;5279;42.048;24.638;2023-07-20T09:25:17;7.80;;;4.90;;
10463;SDS011;5279;42.048;24.638;2023-07-20T09:27:45;7.25;;;4.32;;
10463;SDS011;5279;42.048;24.638;2023-07-20T09:30:14;5.40;;;4.68;;
10463;SDS011;5279;42.048;24.638;2023-07-20T09:32:42;5.13;;;4.63;;
10463;SDS011;5279;42.048;24.638;2023-07-20T09:35:15;7.03;;;4.88;;
10463;SDS011;5279;42.048;24.638;2023-07-20T09:37:45;6.35;;;4.57;;
10463;SDS011;5279;42.048;24.638;2023-07-20T09:40:16;7.03;;;4.20;;
10463;SDS011;5279;42.048;24.638;2023-07-20T09:42:44;6.63;;;4.07;;
10463;SDS011;5279;42.048;24.638;2023-07-20T09:45:11;6.35;;;4.32;;
10463;SDS011;5279;42.048;24.638;2023-07-20T09:47:38;6.35;;;4.80;;
10463;SDS011;5279;42.048;24.638;2023-07-20T09:50:06;9.45;;;4.45;;
10463;SDS011;5279;42.048;24.638;2023-07-20T09:52:39;4.55;;;4.10;;
10463;SDS011;5279;42.048;24.638;2023-07-20T09:55:07;7.55;;;4.60;;
10463;SDS011;5279;42.048;24.638;2023-07-20T09:57:35;6.22;;;4.38;;
10463;SDS011;5279;42.048;24.638;2023-07-20T10:00:02;6.88;;;3.88;;
10463;SDS011;5279;42.048;24.638;2023-07-20T10:02:36;10.95;;;4.47;;
10463;SDS011;5279;42.048;24.638;2023-07-20T10:05:08;7.78;;;4.40;;
10463;SDS011;5279;42.048;24.638;2023-07-20T10:07:40;7.50;;;4.00;;
10463;SDS011;5279;42.048;24.638;2023-07-20T10:10:10;5.72;;;3.70;;
10463;SDS011;5279;42.048;24.638;2023-07-20T10:12:40;7.45;;;4.47;;
10463;SDS011;5279;42.048;24.638;2023-07-20T10:15:10;6.60;;;3.95;;
10463;SDS011;5279;42.048;24.638;2023-07-20T10:17:56;5.38;;;4.18;;
10463;SDS011;5279;42.048;24.638;2023-07-20T10:20:26;5.18;;;4.10;;
10463;SDS011;5279;42.048;24.638;2023-07-20T10:22:55;9.27;;;4.30;;
10463;SDS011;5279;42.048;24.638;2023-07-20T10:25:23;7.47;;;4.38;;
10463;SDS011;5279;42.048;24.638;2023-07-20T10:27:50;9.98;;;4.25;;
10463;SDS011;5279;42.048;24.638;2023-07-20T10:30:17;6.80;;;4.25;;
10463;SDS011;5279;42.048;24.638;2023-07-20T10:32:45;5.00;;;4.32;;
10463;SDS011;5279;42.048;24.638;2023-07-20T10:35:13;7.22;;;3.95;;
10463;SDS011;5279;42.048;24.638;2023-07-20T10:37:51;7.97;;;4.35;;
10463;SDS011;5279;42.048;24.638;2023-07-20T10:40:28;7.38;;;4.07;;
10463;SDS011;5279;42.048;24.638;2023-07-20T10:42:59;6.90;;;4.07;;
10463;SDS011;5279;42.048;24.638;2023-07-20T10:45:41;10.80;;;4.50;;
10463;SDS011;5279;42.048;24.638;2023-07-20T10:48:15;5.13;;;3.72;;
10463;SDS011;5279;42.048;24.638;2023-07-20T10:50:44;8.95;;;3.95;;
10463;SDS011;5279;42.048;24.638;2023-07-20T10:53:15;8.35;;;4.88;;
10463;SDS011;5279;42.048;24.638;2023-07-20T10:55:44;5.18;;;4.20;;
10463;SDS011;5279;42.048;24.638;2023-07-20T10:58:15;6.20;;;4.18;;
10463;SDS011;5279;42.048;24.638;2023-07-20T11:00:55;4.45;;;4.00;;
10463;SDS011;5279;42.048;24.638;2023-07-20T11:03:28;4.18;;;3.78;;
10463;SDS011;5279;42.048;24.638;2023-07-20T11:05:58;7.75;;;4.28;;
10463;SDS011;5279;42.048;24.638;2023-07-20T11:08:38;4.78;;;4.28;;
10463;SDS011;5279;42.048;24.638;2023-07-20T11:11:23;9.23;;;4.53;;
10463;SDS011;5279;42.048;24.638;2023-07-20T11:13:55;7.05;;;3.75;;
10463;SDS011;5279;42.048;24.638;2023-07-20T11:16:39;4.40;;;3.70;;
10463;SDS011;5279;42.048;24.638;2023-07-20T11:19:15;7.20;;;4.05;;
10463;SDS011;5279;42.048;24.638;2023-07-20T11:21:44;4.30;;;3.75;;
10463;SDS011;5279;42.048;24.638;2023-07-20T11:24:12;5.18;;;4.28;;
10463;SDS011;5279;42.048;24.638;2023-07-20T11:26:41;7.53;;;3.80;;
10463;SDS011;5279;42.048;24.638;2023-07-20T11:29:09;7.50;;;4.45;;
10463;SDS011;5279;42.048;24.638;2023-07-20T11:31:36;5.35;;;3.42;;
10463;SDS011;5279;42.048;24.638;2023-07-20T11:34:04;3.33;;;3.00;;
10463;SDS011;5279;42.048;24.638;2023-07-20T11:36:31;5.50;;;3.40;;
10463;SDS011;5279;42.048;24.638;2023-07-20T11:38:58;5.50;;;3.90;;
10463;SDS011;5279;42.048;24.638;2023-07-20T11:41:25;7.18;;;3.25;;
10463;SDS011;5279;42.048;24.638;2023-07-20T11:43:53;6.22;;;3.42;;
10463;SDS011;5279;42.048;24.638;2023-07-20T11:46:21;7.30;;;3.70;;
10463;SDS011;5279;42.048;24.638;2023-07-20T11:48:48;4.90;;;3.85;;
10463;SDS011;5279;42.048;24.638;2023-07-20T11:51:15;5.93;;;3.40;;
10463;SDS011;5279;42.048;24.638;2023-07-20T11:53:43;3.70;;;3.33;;
10463;SDS011;5279;42.048;24.638;2023-07-20T11:56:11;4.85;;;3.42;;
10463;SDS011;5279;42.048;24.638;2023-07-20T11:58:41;5.80;;;3.45;;
10463;SDS011;5279;42.048;24.638;2023-07-20T12:01:11;6.43;;;3.30;;
10463;SDS011;5279;42.048;24.638;2023-07-20T12:03:38;5.68;;;3.65;;
10463;SDS011;5279;42.048;24.638;2023-07-20T12:06:08;5.28;;;3.45;;
10463;SDS011;5279;42.048;24.638;2023-07-20T12:08:37;6.35;;;3.38;;
10463;SDS011;5279;42.048;24.638;2023-07-20T12:11:06;5.10;;;3.30;;
10463;SDS011;5279;42.048;24.638;2023-07-20T12:13:36;7.13;;;3.28;;
10463;SDS011;5279;42.048;24.638;2023-07-20T12:16:11;4.30;;;3.35;;
10463;SDS011;5279;42.048;24.638;2023-07-20T12:18:40;6.18;;;3.60;;
10463;SDS011;5279;42.048;24.638;2023-07-20T12:21:07;4.22;;;3.63;;
10463;SDS011;5279;42.048;24.638;2023-07-20T12:23:35;7.35;;;3.33;;
10463;SDS011;5279;42.048;24.638;2023-07-20T12:26:05;4.28;;;3.58;;
10463;SDS011;5279;42.048;24.638;2023-07-20T12:28:33;5.47;;;3.60;;
10463;SDS011;5279;42.048;24.638;2023-07-20T12:31:02;9.13;;;4.35;;
10463;SDS011;5279;42.048;24.638;2023-07-20T12:33:30;7.70;;;3.80;;
10463;SDS011;5279;42.048;24.638;2023-07-20T12:35:57;7.10;;;3.17;;
10463;SDS011;5279;42.048;24.638;2023-07-20T12:38:24;5.32;;;3.33;;
10463;SDS011;5279;42.048;24.638;2023-07-20T12:40:52;5.13;;;2.95;;
10463;SDS011;5279;42.048;24.638;2023-07-20T12:43:20;7.32;;;2.78;;
10463;SDS011;5279;42.048;24.638;2023-07-20T12:45:47;5.85;;;2.60;;
10463;SDS011;5279;42.048;24.638;2023-07-20T12:48:13;7.15;;;2.67;;
10463;SDS011;5279;42.048;24.638;2023-07-20T12:50:42;4.05;;;2.55;;
10463;SDS011;5279;42.048;24.638;2023-07-20T12:53:09;3.47;;;2.42;;
10463;SDS011;5279;42.048;24.638;2023-07-20T12:55:35;6.10;;;3.40;;
10463;SDS011;5279;42.048;24.638;2023-07-20T12:58:03;3.88;;;2.67;;
10463;SDS011;5279;42.048;24.638;2023-07-20T13:00:30;4.13;;;2.67;;
10463;SDS011;5279;42.048;24.638;2023-07-20T13:02:57;3.63;;;2.40;;
10463;SDS011;5279;42.048;24.638;2023-07-20T13:05:24;4.47;;;2.60;;
10463;SDS011;5279;42.048;24.638;2023-07-20T13:07:52;4.32;;;2.90;;
10463;SDS011;5279;42.048;24.638;2023-07-20T13:10:19;7.55;;;2.75;;
10463;SDS011;5279;42.048;24.638;2023-07-20T13:12:46;4.93;;;2.83;;
10463;SDS011;5279;42.048;24.638;2023-07-20T13:15:12;7.78;;;3.00;;
10463;SDS011;5279;42.048;24.638;2023-07-20T13:17:39;5.30;;;2.65;;
10463;SDS011;5279;42.048;24.638;2023-07-20T13:20:07;4.75;;;2.80;;
10463;SDS011;5279;42.048;24.638;2023-07-20T13:22:36;9.45;;;3.72;;
10463;SDS011;5279;42.048;24.638;2023-07-20T13:25:05;4.97;;;3.72;;
10463;SDS011;5279;42.048;24.638;2023-07-20T13:27:32;6.38;;;3.00;;
10463;SDS011;5279;42.048;24.638;2023-07-20T13:30:00;6.57;;;3.88;;
10463;SDS011;5279;42.048;24.638;2023-07-20T13:32:31;5.80;;;3.60;;
10463;SDS011;5279;42.048;24.638;2023-07-20T13:34:58;6.40;;;3.58;;
10463;SDS011;5279;42.048;24.638;2023-07-20T13:37:25;5.45;;;3.85;;
10463;SDS011;5279;42.048;24.638;2023-07-20T13:39:53;4.75;;;3.60;;
10463;SDS011;5279;42.048;24.638;2023-07-20T13:42:21;3.88;;;3.50;;
10463;SDS011;5279;42.048;24.638;2023-07-20T13:44:48;4.82;;;3.70;;
10463;SDS011;5279;42.048;24.638;2023-07-20T13:47:15;6.22;;;4.05;;
10463;SDS011;5279;42.048;24.638;2023-07-20T13:49:42;6.60;;;4.00;;
10463;SDS011;5279;42.048;24.638;2023-07-20T13:52:09;7.43;;;3.75;;
10463;SDS011;5279;42.048;24.638;2023-07-20T13:54:36;5.50;;;4.47;;
10463;SDS011;5279;42.048;24.638;2023-07-20T13:57:03;8.52;;;4.05;;
10463;SDS011;5279;42.048;24.638;2023-07-20T13:59:32;9.63;;;4.63;;
10463;SDS011;5279;42.048;24.638;2023-07-20T14:01:59;4.80;;;3.60;;
10463;SDS011;5279;42.048;24.638;2023-07-20T14:04:26;7.63;;;3.70;;
10463;SDS011;5279;42.048;24.638;2023-07-20T14:06:52;5.75;;;4.00;;
10463;SDS011;5279;42.048;24.638;2023-07-20T14:09:19;6.30;;;3.28;;
10463;SDS011;5279;42.048;24.638;2023-07-20T14:11:46;8.07;;;3.58;;
10463;SDS011;5279;42.048;24.638;2023-07-20T14:14:13;8.27;;;3.55;;
10463;SDS011;5279;42.048;24.638;2023-07-20T14:16:41;4.30;;;3.75;;
10463;SDS011;5279;42.048;24.638;2023-07-20T14:19:08;6.40;;;3.55;;
10463;SDS011;5279;42.048;24.638;2023-07-20T14:21:35;4.88;;;3.60;;
10463;SDS011;5279;42.048;24.638;2023-07-20T14:24:02;7.63;;;3.78;;
10463;SDS011;5279;42.048;24.638;2023-07-20T14:26:29;3.75;;;3.35;;
10463;SDS011;5279;42.048;24.638;2023-07-20T14:28:55;5.90;;;3.28;;
10463;SDS011;5279;42.048;24.638;2023-07-20T14:31:22;7.93;;;3.30;;
10463;SDS011;5279;42.048;24.638;2023-07-20T14:33:50;7.68;;;3.78;;
10463;SDS011;5279;42.048;24.638;2023-07-20T14:36:18;4.07;;;3.67;;
10463;SDS011;5279;42.048;24.638;2023-07-20T14:38:45;8.75;;;3.97;;
10463;SDS011;5279;42.048;24.638;2023-07-20T14:41:12;7.68;;;3.97;;
10463;SDS011;5279;42.048;24.638;2023-07-20T14:43:39;5.78;;;3.67;;
10463;SDS011;5279;42.048;24.638;2023-07-20T14:46:06;4.47;;;3.20;;
10463;SDS011;5279;42.048;24.638;2023-07-20T14:48:33;5.10;;;3.35;;
10463;SDS011;5279;42.048;24.638;2023-07-20T14:51:01;7.95;;;3.63;;
10463;SDS011;5279;42.048;24.638;2023-07-20T14:53:28;4.20;;;3.10;;
10463;SDS011;5279;42.048;24.638;2023-07-20T14:55:59;3.90;;;2.67;;